Time;durP1;ratioP1;P1;durP2;ratioP2;P2;SDS_P1;SDS_P2;PMS_P1;PMS_P2;Temp;Humidity;BMP_temperature;BMP_pressure;BME280_temperature;BME280_humidity;BME280_pressure;Samples;Min_cycle;Max_cycle;Signal;HPM_P1;HPM_P2
2023/01/21 00:00:33;;;;;;;34.83;22.13;;;-0.40;99.90;;;;;;6148990;23;20024;-82
2023/01/21 00:02:58;;;;;;;34.05;22.98;;;-0.30;99.90;;;;;;6149562;23;20013;-83
2023/01/21 00:05:24;;;;;;;36.78;22.88;;;-0.50;99.90;;;;;;6149130;23;20013;-80
2023/01/21 00:07:49;;;;;;;39.72;23.65;;;-0.50;99.90;;;;;;6148945;23;20017;-80
2023/01/21 00:10:15;;;;;;;36.03;22.33;;;-0.40;99.90;;;;;;6149384;23;20020;-80
2023/01/21 00:12:41;;;;;;;38.42;23.08;;;-0.40;99.90;;;;;;6124705;23;20009;-81
2023/01/21 00:15:06;;;;;;;38.17;22.85;;;-0.40;99.90;;;;;;6125629;23;20047;-80
2023/01/21 00:17:34;;;;;;;39.15;23.60;;;-0.40;99.90;;;;;;6150436;23;20084;-82
2023/01/21 00:20:04;;;;;;;36.67;23.00;;;-0.40;99.90;;;;;;6150070;23;20092;-85
2023/01/21 00:22:30;;;;;;;37.25;22.13;;;-0.30;99.90;;;;;;6150861;23;20092;-86
2023/01/21 00:24:56;;;;;;;38.55;23.50;;;-0.40;99.90;;;;;;6150022;23;20049;-80
2023/01/21 00:27:21;;;;;;;40.53;24.42;;;-0.30;99.90;;;;;;6150369;23;20148;-83
2023/01/21 00:29:47;;;;;;;39.83;22.38;;;-0.30;99.90;;;;;;6150419;23;20013;-80
2023/01/21 00:32:13;;;;;;;43.85;23.38;;;-0.30;99.90;;;;;;6150611;23;20014;-80
2023/01/21 00:34:39;;;;;;;43.08;24.20;;;-0.20;99.90;;;;;;6149155;23;20378;-81
2023/01/21 00:37:06;;;;;;;38.55;22.30;;;-0.20;99.90;;;;;;6150584;23;20013;-80
2023/01/21 00:39:32;;;;;;;42.22;22.90;;;-0.30;99.90;;;;;;6151689;23;20084;-89
2023/01/21 00:41:58;;;;;;;44.85;24.73;;;-0.20;99.90;;;;;;6152488;23;20343;-86
2023/01/21 00:44:24;;;;;;;41.60;23.67;;;-0.30;99.90;;;;;;6152348;23;20016;-82
2023/01/21 00:46:50;;;;;;;42.42;25.20;;;0.00;99.90;;;;;;6127811;23;20095;-84
2023/01/21 00:49:16;;;;;;;43.05;24.27;;;-0.20;99.90;;;;;;6127628;23;20022;-80
2023/01/21 00:51:41;;;;;;;45.20;24.58;;;-0.20;99.90;;;;;;6152237;23;20013;-80
2023/01/21 00:54:07;;;;;;;41.55;23.90;;;-0.20;99.90;;;;;;6151315;23;20447;-80
2023/01/21 00:56:32;;;;;;;42.53;24.23;;;-0.20;99.90;;;;;;6150970;23;20391;-83
2023/01/21 00:58:58;;;;;;;37.92;24.25;;;-0.20;99.90;;;;;;6151774;23;20026;-83
2023/01/21 01:01:25;;;;;;;51.30;26.27;;;-0.10;99.90;;;;;;6151505;23;20014;-80
2023/01/21 01:03:51;;;;;;;43.97;24.45;;;-0.20;99.90;;;;;;6150847;23;20021;-81
2023/01/21 01:06:19;;;;;;;49.10;26.33;;;-0.10;99.90;;;;;;6149800;23;20017;-82
2023/01/21 01:08:46;;;;;;;48.28;26.63;;;-0.10;99.90;;;;;;6151077;23;20020;-83
2023/01/21 01:11:12;;;;;;;45.20;26.65;;;-0.20;99.90;;;;;;6151050;23;20013;-80
2023/01/21 01:13:38;;;;;;;51.45;26.02;;;-0.20;99.90;;;;;;6150365;23;20018;-80
2023/01/21 01:16:04;;;;;;;45.60;28.80;;;-0.10;99.90;;;;;;6150391;23;20075;-81
2023/01/21 01:18:32;;;;;;;53.53;28.52;;;-0.20;99.90;;;;;;6150773;23;20024;-84
2023/01/21 01:20:58;;;;;;;52.20;28.98;;;-0.10;99.90;;;;;;6150830;23;20029;-86
2023/01/21 01:23:24;;;;;;;57.88;31.30;;;-0.10;99.90;;;;;;6151486;23;20017;-81
2023/01/21 01:25:58;;;;;;;52.60;30.55;;;-0.20;99.90;;;;;;6149820;23;20076;-81
2023/01/21 01:28:23;;;;;;;55.70;29.90;;;-0.10;99.90;;;;;;6151451;23;20024;-80
2023/01/21 01:30:49;;;;;;;60.83;31.77;;;-0.10;99.90;;;;;;6125137;23;20108;-82
2023/01/21 01:33:14;;;;;;;57.67;32.45;;;0.00;99.90;;;;;;6150653;23;20376;-80
2023/01/21 01:35:40;;;;;;;57.72;30.42;;;-0.20;99.90;;;;;;6150268;23;20342;-84
2023/01/21 01:38:08;;;;;;;53.33;30.55;;;-0.20;99.90;;;;;;6151213;23;20014;-85
2023/01/21 01:40:34;;;;;;;54.65;30.08;;;-0.30;99.90;;;;;;6125798;23;20013;-81
2023/01/21 01:43:00;;;;;;;53.42;31.73;;;-0.20;99.90;;;;;;6127111;23;20009;-87
2023/01/21 01:45:26;;;;;;;53.53;30.77;;;-0.20;99.90;;;;;;6126304;23;20529;-80
2023/01/21 01:47:59;;;;;;;58.03;32.13;;;-0.20;99.90;;;;;;6150443;23;20017;-81
2023/01/21 01:50:32;;;;;;;66.57;32.80;;;-0.20;99.90;;;;;;6150182;23;20084;-83
2023/01/21 01:53:00;;;;;;;64.68;32.95;;;-0.30;99.90;;;;;;6150460;23;20401;-87
2023/01/21 01:55:27;;;;;;;60.83;32.33;;;-0.30;99.90;;;;;;6150032;23;20056;-80
2023/01/21 01:57:54;;;;;;;72.22;34.13;;;-0.30;99.90;;;;;;6149756;23;20028;-80
2023/01/21 02:00:20;;;;;;;61.05;29.85;;;-0.40;99.90;;;;;;6150077;23;20021;-82
2023/01/21 02:03:43;;;;;;;62.28;31.60;;;-0.30;99.90;;;;;;6124653;23;20013;-80
2023/01/21 02:05:36;;;;;;;60.17;30.33;;;-0.30;99.90;;;;;;6150404;23;20025;-89
2023/01/21 02:08:02;;;;;;;62.95;31.17;;;-0.30;99.90;;;;;;6150483;23;20489;-82
2023/01/21 02:10:28;;;;;;;61.05;31.13;;;-0.30;99.90;;;;;;6150468;23;20013;-86
2023/01/21 02:12:54;;;;;;;57.88;31.08;;;-0.30;99.90;;;;;;6150446;23;20017;-81
2023/01/21 02:15:21;;;;;;;53.38;30.67;;;-0.30;99.90;;;;;;6150495;23;20419;-82
2023/01/21 02:18:18;;;;;;;59.08;31.30;;;-0.30;99.90;;;;;;6150863;23;20014;-80
2023/01/21 02:20:55;;;;;;;63.88;30.85;;;-0.30;99.90;;;;;;6150188;23;20022;-81
2023/01/21 02:23:48;;;;;;;51.17;27.90;;;-0.30;99.90;;;;;;6150640;23;20482;-80
2023/01/21 02:26:34;;;;;;;63.17;31.45;;;-0.20;99.90;;;;;;6150506;23;20025;-80
2023/01/21 02:29:23;;;;;;;66.28;31.13;;;-0.30;99.90;;;;;;6130038;23;20033;-90
2023/01/21 02:32:13;;;;;;;62.42;31.90;;;-0.30;99.90;;;;;;6149494;23;20079;-80
2023/01/21 02:34:47;;;;;;;68.18;30.92;;;-0.30;99.90;;;;;;6149305;23;20355;-80
2023/01/21 02:37:31;;;;;;;56.70;29.75;;;-0.30;99.90;;;;;;6148635;23;20018;-82
2023/01/21 02:40:22;;;;;;;80.60;33.03;;;-0.40;99.90;;;;;;6150243;23;20513;-80
2023/01/21 02:43:18;;;;;;;73.35;31.42;;;-0.40;99.90;;;;;;6149412;23;20022;-81
2023/01/21 02:46:00;;;;;;;81.60;32.47;;;-0.40;99.90;;;;;;6149365;23;20017;-80
2023/01/21 02:48:46;;;;;;;92.78;33.50;;;-0.40;99.90;;;;;;6149929;23;20045;-81
2023/01/21 02:51:12;;;;;;;85.18;33.60;;;-0.50;99.90;;;;;;6149383;23;20344;-80
2023/01/21 02:53:38;;;;;;;99.88;36.03;;;-0.50;99.90;;;;;;6149541;23;20013;-81
2023/01/21 02:56:24;;;;;;;74.82;33.00;;;-0.50;99.90;;;;;;6124647;23;20467;-83
2023/01/21 02:59:00;;;;;;;106.97;35.90;;;-0.40;99.90;;;;;;6149938;23;20575;-82
2023/01/21 03:01:44;;;;;;;163.07;37.45;;;-0.50;99.90;;;;;;6125807;23;20096;-84
2023/01/21 03:04:38;;;;;;;127.55;34.03;;;-0.50;99.90;;;;;;6149256;23;20097;-81
2023/01/21 03:07:33;;;;;;;141.30;36.47;;;-0.50;99.90;;;;;;6149850;23;20017;-84
2023/01/21 03:10:08;;;;;;;114.53;35.42;;;-0.50;99.90;;;;;;6149862;23;20009;-81
2023/01/21 03:13:00;;;;;;;102.93;33.20;;;-0.50;99.90;;;;;;6149508;23;20013;-83
2023/01/21 03:18:37;;;;;;;189.68;39.42;;;-0.50;99.90;;;;;;6149926;23;20100;-80
2023/01/21 03:21:10;;;;;;;179.63;38.75;;;-0.50;99.90;;;;;;6149587;23;20017;-80
2023/01/21 03:23:41;;;;;;;149.93;37.58;;;-0.50;99.90;;;;;;6148791;23;20868;-83
2023/01/21 03:26:09;;;;;;;92.63;34.03;;;-0.50;99.90;;;;;;6149531;23;20023;-80
2023/01/21 03:28:41;;;;;;;107.60;34.50;;;-0.40;99.90;;;;;;6149680;23;20047;-84
2023/01/21 03:31:12;;;;;;;96.97;34.92;;;-0.40;99.90;;;;;;6150654;23;20013;-82
2023/01/21 03:33:42;;;;;;;118.80;36.28;;;-0.40;99.90;;;;;;6149902;23;20096;-80
2023/01/21 03:36:25;;;;;;;85.40;33.03;;;-0.40;99.90;;;;;;6148641;23;20037;-81
2023/01/21 03:38:55;;;;;;;92.85;32.83;;;-0.30;99.90;;;;;;6149840;23;20474;-82
2023/01/21 03:41:23;;;;;;;92.53;32.42;;;-0.30;99.90;;;;;;6150824;23;20023;-80
2023/01/21 03:43:50;;;;;;;79.47;33.35;;;-0.30;99.90;;;;;;6124344;23;20100;-81
2023/01/21 03:46:24;;;;;;;74.95;31.55;;;-0.30;99.90;;;;;;6149147;23;20101;-80
2023/01/21 03:49:03;;;;;;;79.20;31.95;;;-0.20;99.90;;;;;;6149542;23;20027;-80
2023/01/21 03:51:33;;;;;;;74.00;30.65;;;-0.20;99.90;;;;;;6149395;23;20454;-84
2023/01/21 03:53:59;;;;;;;71.25;29.23;;;-0.20;99.90;;;;;;6149415;23;20014;-81
2023/01/21 03:56:25;;;;;;;78.75;32.25;;;-0.10;99.90;;;;;;6149208;23;20033;-80
2023/01/21 03:58:51;;;;;;;76.65;31.38;;;-0.10;99.90;;;;;;6125087;23;20021;-82
2023/01/21 04:01:17;;;;;;;79.85;31.17;;;-0.10;99.90;;;;;;6125565;23;20044;-81
2023/01/21 04:03:43;;;;;;;72.10;30.42;;;-0.10;99.90;;;;;;6149552;23;20049;-80
2023/01/21 04:06:17;;;;;;;61.22;27.25;;;-0.10;99.90;;;;;;6124364;23;20017;-80
2023/01/21 04:08:45;;;;;;;57.05;28.58;;;-0.10;99.90;;;;;;6148702;23;20014;-81
2023/01/21 04:11:10;;;;;;;62.92;29.70;;;-0.10;99.90;;;;;;6148988;23;20761;-80
2023/01/21 04:13:36;;;;;;;68.03;30.35;;;-0.10;99.90;;;;;;6149106;23;20056;-83
2023/01/21 04:16:02;;;;;;;63.72;27.42;;;0.00;99.90;;;;;;6148190;23;20084;-80
2023/01/21 04:18:27;;;;;;;50.08;26.15;;;0.00;99.90;;;;;;6149775;23;20080;-83
2023/01/21 04:20:53;;;;;;;73.93;30.83;;;0.20;99.90;;;;;;6149138;23;20021;-80
2023/01/21 04:23:19;;;;;;;71.20;30.25;;;0.00;99.90;;;;;;6149871;23;20024;-80
2023/01/21 04:25:47;;;;;;;64.43;29.27;;;0.00;99.90;;;;;;6147413;23;20056;-83
2023/01/21 04:28:13;;;;;;;62.00;29.42;;;0.00;99.90;;;;;;6149122;23;20013;-84
2023/01/21 04:30:38;;;;;;;57.80;27.80;;;0.00;99.90;;;;;;6124246;23;20510;-80
2023/01/21 04:33:04;;;;;;;56.80;29.10;;;-0.10;99.90;;;;;;6124823;23;20016;-81
2023/01/21 04:35:29;;;;;;;61.95;30.15;;;0.00;99.90;;;;;;6148001;23;20017;-86
2023/01/21 04:37:55;;;;;;;54.45;28.45;;;0.00;99.90;;;;;;6124537;23;20069;-82
2023/01/21 04:40:20;;;;;;;60.67;30.63;;;0.00;99.90;;;;;;6148809;23;20022;-80
2023/01/21 04:42:46;;;;;;;79.70;31.60;;;0.00;99.90;;;;;;6148340;23;20025;-81
2023/01/21 04:45:12;;;;;;;86.32;32.20;;;0.10;99.90;;;;;;6148832;23;20013;-82
2023/01/21 04:47:41;;;;;;;62.63;29.02;;;0.00;99.90;;;;;;6149019;23;20273;-83
2023/01/21 04:50:08;;;;;;;66.20;31.05;;;0.00;99.90;;;;;;6149106;23;20096;-80
2023/01/21 04:52:34;;;;;;;63.85;29.17;;;0.10;99.90;;;;;;6148979;23;20807;-82
2023/01/21 04:54:59;;;;;;;62.63;29.25;;;0.00;99.90;;;;;;6148964;23;20014;-84
2023/01/21 04:57:25;;;;;;;60.30;28.50;;;0.00;99.90;;;;;;6125603;23;20014;-80
2023/01/21 04:59:50;;;;;;;59.67;28.98;;;0.00;99.90;;;;;;6149052;23;20025;-83
2023/01/21 05:02:16;;;;;;;61.15;28.35;;;0.00;99.90;;;;;;6149351;23;20010;-87
2023/01/21 05:04:41;;;;;;;62.97;29.15;;;0.00;99.90;;;;;;6148939;23;20017;-80
2023/01/21 05:07:07;;;;;;;51.55;26.30;;;0.00;99.90;;;;;;6149340;23;20014;-80
2023/01/21 05:09:32;;;;;;;54.03;29.13;;;0.00;99.90;;;;;;6149491;23;20014;-84
2023/01/21 05:11:58;;;;;;;54.08;27.90;;;-0.10;99.90;;;;;;6125376;23;20032;-86
2023/01/21 05:14:24;;;;;;;58.42;28.23;;;-0.10;99.90;;;;;;6148790;23;20059;-81
2023/01/21 05:16:49;;;;;;;54.22;26.58;;;-0.20;99.90;;;;;;6123510;23;20025;-80
2023/01/21 05:19:15;;;;;;;54.00;28.45;;;-0.20;99.90;;;;;;6149134;23;20010;-81
2023/01/21 05:21:40;;;;;;;64.28;28.73;;;-0.20;99.90;;;;;;6148349;23;20100;-80
2023/01/21 05:24:06;;;;;;;173.55;31.25;;;-0.20;99.90;;;;;;6150724;23;20021;-81
2023/01/21 05:26:32;;;;;;;167.65;29.10;;;-0.30;99.90;;;;;;6150588;23;20406;-87
2023/01/21 05:28:57;;;;;;;339.23;39.65;;;-0.30;99.90;;;;;;6150834;23;20113;-87
2023/01/21 05:31:23;;;;;;;365.42;40.10;;;-0.30;99.90;;;;;;6151039;23;20088;-81
2023/01/21 05:33:49;;;;;;;146.30;32.85;;;-0.30;99.90;;;;;;6149844;23;20018;-83
2023/01/21 05:36:15;;;;;;;147.43;30.67;;;-0.30;99.90;;;;;;6149273;23;20032;-80
2023/01/21 05:38:40;;;;;;;135.75;31.67;;;-0.30;99.90;;;;;;6150411;23;20014;-81
2023/01/21 05:41:06;;;;;;;137.65;32.13;;;-0.30;99.90;;;;;;6150354;23;20018;-81
2023/01/21 05:43:32;;;;;;;237.23;35.70;;;-0.10;99.90;;;;;;6150694;23;20021;-88
2023/01/21 05:45:57;;;;;;;102.35;28.23;;;-0.20;99.90;;;;;;6149874;23;20463;-87
2023/01/21 05:48:23;;;;;;;62.40;27.67;;;-0.30;99.90;;;;;;6150288;23;20013;-80
2023/01/21 05:50:49;;;;;;;107.60;29.00;;;-0.10;99.90;;;;;;6124506;23;20018;-80
2023/01/21 05:53:17;;;;;;;75.72;28.73;;;-0.20;99.90;;;;;;6150600;23;20005;-81
2023/01/21 05:55:43;;;;;;;173.70;30.50;;;-0.20;99.90;;;;;;6148710;23;20006;-80
2023/01/21 05:58:08;;;;;;;93.07;26.60;;;-0.30;99.90;;;;;;6150623;23;20084;-81
2023/01/21 06:00:34;;;;;;;107.72;28.33;;;-0.30;99.90;;;;;;6150155;23;20048;-87
2023/01/21 06:03:03;;;;;;;57.30;26.17;;;-0.30;99.90;;;;;;6150425;23;20017;-86
2023/01/21 06:05:28;;;;;;;53.05;27.20;;;-0.40;99.90;;;;;;6124441;23;20065;-84
2023/01/21 06:07:54;;;;;;;53.63;28.65;;;-0.30;99.90;;;;;;6149643;23;20025;-80
2023/01/21 06:10:20;;;;;;;51.25;27.58;;;-0.30;99.90;;;;;;6149852;23;20052;-80
2023/01/21 06:12:49;;;;;;;59.40;29.05;;;-0.20;99.90;;;;;;6149676;23;20767;-81
2023/01/21 06:15:15;;;;;;;64.97;27.65;;;-0.20;99.90;;;;;;6147812;23;20570;-81
2023/01/21 06:17:41;;;;;;;46.30;26.67;;;-0.20;99.90;;;;;;6148889;23;20049;-83
2023/01/21 06:20:08;;;;;;;41.53;25.95;;;-0.30;99.90;;;;;;6149073;23;20522;-81
2023/01/21 06:22:33;;;;;;;45.33;26.15;;;-0.20;99.90;;;;;;6125477;23;20116;-84
2023/01/21 06:24:59;;;;;;;45.15;25.92;;;-0.10;99.90;;;;;;6149296;23;20454;-82
2023/01/21 06:27:24;;;;;;;53.22;28.02;;;0.20;99.90;;;;;;6150244;23;20718;-80
2023/01/21 06:29:50;;;;;;;38.45;24.42;;;-0.10;99.90;;;;;;6123740;23;20025;-81
2023/01/21 06:32:15;;;;;;;42.78;26.13;;;0.10;99.90;;;;;;6150245;23;20485;-84
2023/01/21 06:34:41;;;;;;;40.97;26.20;;;-0.10;99.90;;;;;;6148804;23;20045;-80
2023/01/21 06:37:07;;;;;;;50.72;27.50;;;-0.10;99.90;;;;;;6149731;23;20021;-80
2023/01/21 06:39:32;;;;;;;47.85;27.63;;;0.00;99.90;;;;;;6150231;23;20017;-85
2023/01/21 06:41:58;;;;;;;64.78;29.05;;;0.00;99.90;;;;;;6150725;23;20017;-86
2023/01/21 06:44:24;;;;;;;48.53;28.42;;;0.10;99.90;;;;;;6149719;23;20076;-83
2023/01/21 06:46:49;;;;;;;53.28;28.77;;;0.00;99.90;;;;;;6148216;23;20121;-80
2023/01/21 06:49:15;;;;;;;48.42;27.25;;;0.00;99.90;;;;;;6149734;23;20013;-81
2023/01/21 06:51:41;;;;;;;48.80;27.75;;;0.00;99.90;;;;;;6125057;23;20016;-80
2023/01/21 06:54:09;;;;;;;45.78;27.88;;;0.00;99.90;;;;;;6150380;23;20392;-80
2023/01/21 06:56:35;;;;;;;48.53;26.88;;;0.10;99.90;;;;;;6148465;23;20048;-85
2023/01/21 06:59:01;;;;;;;45.22;25.20;;;0.10;99.90;;;;;;6150171;23;20025;-85
2023/01/21 07:01:27;;;;;;;42.78;25.67;;;0.10;99.90;;;;;;6149651;23;20013;-89
2023/01/21 07:03:55;;;;;;;44.38;25.73;;;0.20;99.90;;;;;;6149741;23;20534;-83
2023/01/21 07:06:24;;;;;;;46.13;25.52;;;0.80;99.90;;;;;;6149491;23;20017;-81
2023/01/21 07:08:49;;;;;;;42.60;24.75;;;0.20;99.90;;;;;;6150499;23;20023;-80
2023/01/21 07:11:20;;;;;;;40.50;24.13;;;0.30;99.90;;;;;;6149788;23;20399;-81
2023/01/21 07:13:46;;;;;;;44.30;24.67;;;0.30;99.90;;;;;;6149746;23;20346;-80
2023/01/21 07:16:11;;;;;;;57.80;26.27;;;0.30;99.90;;;;;;6148906;23;20014;-80
2023/01/21 07:18:37;;;;;;;39.10;24.83;;;0.20;99.90;;;;;;6149360;23;20024;-81
2023/01/21 07:21:02;;;;;;;40.83;25.65;;;0.20;99.90;;;;;;6149984;23;20013;-80
2023/01/21 07:23:29;;;;;;;41.53;24.60;;;0.70;99.90;;;;;;6149877;23;20019;-84
2023/01/21 07:25:55;;;;;;;38.30;25.58;;;0.30;99.90;;;;;;6148430;23;20076;-81
2023/01/21 07:28:20;;;;;;;38.25;24.48;;;0.30;99.90;;;;;;6148487;23;20022;-82
2023/01/21 07:30:46;;;;;;;42.05;25.95;;;0.30;99.90;;;;;;6149140;23;20013;-81
2023/01/21 07:33:11;;;;;;;52.05;27.40;;;0.40;99.90;;;;;;6149271;23;20013;-85
2023/01/21 07:35:38;;;;;;;48.75;27.10;;;0.40;99.90;;;;;;6148557;23;20009;-81
2023/01/21 07:38:04;;;;;;;49.38;27.40;;;0.40;99.90;;;;;;6150613;23;20017;-80
2023/01/21 07:40:29;;;;;;;47.30;26.83;;;0.40;99.90;;;;;;6125267;23;20033;-86
2023/01/21 07:42:55;;;;;;;55.20;29.30;;;0.40;99.90;;;;;;6124568;23;20096;-80
2023/01/21 07:45:21;;;;;;;52.13;30.92;;;0.40;99.90;;;;;;6147152;23;20021;-80
2023/01/21 07:47:47;;;;;;;49.65;30.05;;;0.40;99.90;;;;;;6148825;23;21022;-81
2023/01/21 07:50:13;;;;;;;53.13;30.30;;;0.40;99.90;;;;;;6125866;23;20010;-81
2023/01/21 07:52:39;;;;;;;49.83;28.83;;;0.50;99.90;;;;;;6150207;23;20401;-81
2023/01/21 07:55:05;;;;;;;50.08;29.92;;;0.50;99.90;;;;;;6150679;23;20006;-86
2023/01/21 07:57:32;;;;;;;50.35;30.67;;;0.40;99.90;;;;;;6123921;23;20009;-85
2023/01/21 07:59:57;;;;;;;54.78;31.90;;;0.10;99.90;;;;;;6124747;23;20009;-88
2023/01/21 08:02:23;;;;;;;51.72;31.02;;;0.50;99.90;;;;;;6124551;23;20320;-85
2023/01/21 08:04:49;;;;;;;55.33;32.63;;;0.50;99.90;;;;;;6124003;23;20009;-87
2023/01/21 08:07:17;;;;;;;49.58;30.48;;;0.50;99.90;;;;;;6123735;23;20083;-86
2023/01/21 08:09:43;;;;;;;59.33;31.67;;;0.50;99.90;;;;;;6148486;23;20037;-86
2023/01/21 08:12:38;;;;;;;54.47;30.45;;;0.90;99.90;;;;;;6123290;23;20009;-85
2023/01/21 08:15:21;;;;;;;54.33;31.17;;;0.60;99.90;;;;;;6145340;23;20017;-82
2023/01/21 08:17:47;;;;;;;53.97;30.58;;;0.40;99.90;;;;;;6149349;23;20016;-81
2023/01/21 08:20:13;;;;;;;50.90;30.10;;;0.40;99.90;;;;;;6150473;23;20021;-81
2023/01/21 08:22:42;;;;;;;49.45;30.13;;;0.50;99.90;;;;;;6146229;23;20036;-81
2023/01/21 08:25:08;;;;;;;52.67;30.02;;;0.50;99.90;;;;;;6150012;23;20028;-84
2023/01/21 08:27:40;;;;;;;48.67;30.13;;;0.50;99.90;;;;;;6124583;23;20049;-85
2023/01/21 08:30:07;;;;;;;52.65;29.75;;;0.50;99.90;;;;;;6123860;23;20450;-84
2023/01/21 08:32:33;;;;;;;44.95;28.13;;;0.60;99.90;;;;;;6149742;23;20021;-87
2023/01/21 08:34:58;;;;;;;52.05;30.05;;;0.60;99.90;;;;;;6149120;23;20014;-86
2023/01/21 08:37:24;;;;;;;57.75;33.00;;;0.60;99.90;;;;;;6151758;23;20014;-83
2023/01/21 08:39:50;;;;;;;59.40;32.22;;;0.60;99.90;;;;;;6128140;23;20024;-84
2023/01/21 08:42:15;;;;;;;54.65;29.88;;;0.60;99.90;;;;;;6127528;23;20021;-84
2023/01/21 08:44:41;;;;;;;51.95;29.25;;;0.60;99.90;;;;;;6127638;23;20031;-84
2023/01/21 08:47:07;;;;;;;50.20;30.33;;;0.70;99.90;;;;;;6152366;23;20409;-85
2023/01/21 08:49:33;;;;;;;53.88;30.42;;;0.70;99.90;;;;;;6127861;23;20017;-86
2023/01/21 08:51:58;;;;;;;50.20;29.73;;;0.70;99.90;;;;;;6127444;23;20072;-88
2023/01/21 08:54:24;;;;;;;52.13;30.83;;;0.70;99.90;;;;;;6126403;23;20013;-84
2023/01/21 08:56:50;;;;;;;52.25;30.92;;;0.70;99.90;;;;;;6127371;23;20010;-83
2023/01/21 08:59:15;;;;;;;44.60;28.42;;;0.70;99.90;;;;;;6129630;23;20096;-84
2023/01/21 09:01:42;;;;;;;44.30;27.60;;;0.70;99.90;;;;;;6155345;23;20017;-85
2023/01/21 09:04:08;;;;;;;46.00;28.60;;;0.70;99.90;;;;;;6131455;23;20069;-83
2023/01/21 09:06:33;;;;;;;50.53;27.55;;;0.70;99.90;;;;;;6130036;23;20021;-85
2023/01/21 09:08:59;;;;;;;44.75;27.65;;;0.70;99.90;;;;;;6155640;23;20014;-83
2023/01/21 09:11:26;;;;;;;41.15;27.10;;;0.80;99.90;;;;;;6132101;23;20005;-83
2023/01/21 09:13:51;;;;;;;43.00;26.33;;;0.70;99.90;;;;;;6155818;23;20763;-86
2023/01/21 09:16:19;;;;;;;45.15;27.15;;;0.80;99.90;;;;;;6129528;23;20100;-83
2023/01/21 09:18:46;;;;;;;45.63;29.05;;;0.80;99.90;;;;;;6153603;23;20385;-83
2023/01/21 09:21:12;;;;;;;41.88;27.05;;;0.80;99.90;;;;;;6129267;23;20017;-83
2023/01/21 09:23:39;;;;;;;39.60;26.08;;;0.90;99.90;;;;;;6153379;23;20021;-88
2023/01/21 09:26:06;;;;;;;44.88;29.33;;;0.90;99.90;;;;;;6127537;23;20017;-84
2023/01/21 09:28:35;;;;;;;44.60;27.70;;;0.90;99.90;;;;;;6128730;23;20018;-84
2023/01/21 09:31:03;;;;;;;44.40;27.42;;;1.00;99.90;;;;;;6127906;23;20068;-86
2023/01/21 09:33:30;;;;;;;40.60;26.52;;;1.00;99.90;;;;;;6154998;23;20010;-84
2023/01/21 09:35:58;;;;;;;50.15;27.95;;;1.00;99.90;;;;;;6153918;23;20454;-82
2023/01/21 09:38:24;;;;;;;36.50;24.60;;;0.90;99.90;;;;;;6154267;23;20446;-83
2023/01/21 09:40:51;;;;;;;38.10;25.52;;;1.00;99.90;;;;;;6125354;23;20029;-84
2023/01/21 09:43:48;;;;;;;36.88;26.48;;;0.90;99.90;;;;;;6127492;23;20112;-83
2023/01/21 09:46:29;;;;;;;36.67;25.08;;;0.90;99.90;;;;;;6146555;23;20024;-80
2023/01/21 09:48:55;;;;;;;38.15;25.35;;;1.00;99.90;;;;;;6149641;23;20500;-82
2023/01/21 09:51:45;;;;;;;41.20;26.67;;;0.90;99.90;;;;;;6152268;23;20439;-85
2023/01/21 09:54:18;;;;;;;37.45;25.80;;;0.90;99.90;;;;;;6151536;23;20014;-81
2023/01/21 09:57:05;;;;;;;33.22;24.48;;;1.00;99.90;;;;;;6122765;23;20016;-81
2023/01/21 09:59:52;;;;;;;39.90;25.98;;;0.90;99.90;;;;;;6150770;23;20052;-83
2023/01/21 10:02:31;;;;;;;38.75;26.52;;;1.00;99.90;;;;;;6129617;23;20076;-81
2023/01/21 10:05:16;;;;;;;35.08;25.40;;;1.10;99.90;;;;;;6153767;23;20017;-83
2023/01/21 10:08:05;;;;;;;37.10;24.95;;;1.10;99.90;;;;;;6127185;23;20069;-81
2023/01/21 10:10:43;;;;;;;33.90;24.00;;;1.10;99.90;;;;;;6127426;23;20016;-82
2023/01/21 10:13:17;;;;;;;37.50;26.17;;;1.20;99.90;;;;;;6151171;23;20013;-81
2023/01/21 10:15:48;;;;;;;35.17;26.38;;;1.30;99.90;;;;;;6147869;23;20013;-78
2023/01/21 10:18:23;;;;;;;40.05;26.75;;;1.40;99.90;;;;;;6149107;23;20065;-78
2023/01/21 10:21:21;;;;;;;34.67;24.98;;;1.40;99.90;;;;;;6124557;23;20013;-80
2023/01/21 10:23:58;;;;;;;36.13;25.67;;;1.50;99.90;;;;;;6102654;23;20017;-83
2023/01/21 10:26:26;;;;;;;41.92;25.92;;;1.60;99.90;;;;;;6128303;23;20009;-81
2023/01/21 10:28:54;;;;;;;34.88;24.58;;;1.60;99.90;;;;;;6151938;23;20041;-81
2023/01/21 10:35:17;;;;;;;36.08;26.20;;;1.80;99.90;;;;;;6140351;23;20103;-81
2023/01/21 10:37:46;;;;;;;31.88;24.02;;;2.00;99.90;;;;;;6125214;23;20056;-79
2023/01/21 10:40:54;;;;;;;39.15;24.88;;;2.10;99.90;;;;;;6125702;23;20013;-83
2023/01/21 10:43:41;;;;;;;38.72;24.92;;;2.10;99.90;;;;;;6133299;23;20705;-81
2023/01/21 10:46:12;;;;;;;31.05;24.30;;;2.30;99.90;;;;;;6151194;23;20069;-80
2023/01/21 10:48:49;;;;;;;29.38;23.52;;;2.50;99.90;;;;;;6151829;23;20096;-85
2023/01/21 10:51:33;;;;;;;33.63;25.55;;;2.70;99.90;;;;;;6150460;23;20041;-80
2023/01/21 10:54:40;;;;;;;31.52;24.85;;;2.80;99.90;;;;;;6149658;23;20005;-88
2023/01/21 10:57:25;;;;;;;37.42;25.52;;;3.00;99.90;;;;;;6123999;23;20414;-81
2023/01/21 10:59:52;;;;;;;33.63;25.17;;;3.10;99.90;;;;;;6152052;23;20088;-80
2023/01/21 11:02:28;;;;;;;29.02;24.23;;;3.30;99.90;;;;;;6125350;23;20052;-82
2023/01/21 11:04:57;;;;;;;33.38;24.70;;;3.50;99.90;;;;;;6148760;23;20017;-81
2023/01/21 11:07:23;;;;;;;31.23;24.00;;;3.70;99.90;;;;;;6149326;23;20096;-81
2023/01/21 11:09:49;;;;;;;27.88;22.88;;;3.80;99.90;;;;;;6149448;23;20018;-79
2023/01/21 11:12:18;;;;;;;30.55;23.92;;;3.80;99.90;;;;;;6148560;23;20059;-79
2023/01/21 11:14:53;;;;;;;28.15;23.67;;;4.00;99.90;;;;;;6124347;23;20017;-79
2023/01/21 11:17:34;;;;;;;27.77;22.15;;;4.00;99.90;;;;;;6150038;23;20021;-80
2023/01/21 11:20:04;;;;;;;28.63;23.17;;;4.20;99.90;;;;;;6149387;23;20017;-86
2023/01/21 11:22:31;;;;;;;27.48;22.85;;;4.40;99.90;;;;;;6149643;23;20005;-87
2023/01/21 11:24:58;;;;;;;26.85;22.13;;;4.70;99.90;;;;;;6148472;23;20010;-81
2023/01/21 11:27:27;;;;;;;25.38;21.92;;;4.80;99.90;;;;;;6147870;23;20036;-79
2023/01/21 11:29:53;;;;;;;25.25;21.10;;;5.00;99.90;;;;;;6142989;23;20053;-79
2023/01/21 11:33:03;;;;;;;25.35;20.67;;;5.20;99.90;;;;;;6151380;23;20024;-80
2023/01/21 11:35:32;;;;;;;27.00;20.70;;;5.40;99.90;;;;;;6146759;23;20021;-82
2023/01/21 11:37:57;;;;;;;24.33;20.35;;;5.70;99.90;;;;;;6126313;23;20108;-82
2023/01/21 11:40:24;;;;;;;22.75;20.35;;;5.80;99.90;;;;;;6149343;23;20028;-81
2023/01/21 11:42:55;;;;;;;19.83;17.73;;;6.10;99.90;;;;;;6148894;23;20020;-82
2023/01/21 11:45:34;;;;;;;23.00;19.75;;;6.40;99.90;;;;;;6120116;23;20025;-82
2023/01/21 11:48:00;;;;;;;21.20;19.00;;;6.80;99.90;;;;;;6149472;23;20013;-83
2023/01/21 11:50:36;;;;;;;20.95;18.95;;;6.90;99.90;;;;;;6122766;23;20517;-81
2023/01/21 11:53:18;;;;;;;20.40;18.40;;;7.20;99.90;;;;;;6123997;23;20071;-82
2023/01/21 11:56:15;;;;;;;22.08;19.70;;;7.40;99.90;;;;;;6144588;23;20438;-86
2023/01/21 11:59:11;;;;;;;19.02;17.13;;;7.80;99.90;;;;;;6135968;23;20017;-84
2023/01/21 12:01:37;;;;;;;21.25;16.95;;;7.90;99.90;;;;;;6096413;23;20469;-84
2023/01/21 12:04:03;;;;;;;21.42;19.20;;;8.20;99.90;;;;;;6150707;23;20005;-84
2023/01/21 12:06:29;;;;;;;18.13;16.33;;;7.80;99.90;;;;;;6122680;23;20017;-84
2023/01/21 12:09:00;;;;;;;18.98;16.95;;;7.20;99.90;;;;;;6121780;23;20434;-84
2023/01/21 12:11:28;;;;;;;20.23;18.20;;;6.60;99.90;;;;;;6123551;23;20056;-85
2023/01/21 12:14:29;;;;;;;19.10;17.10;;;6.20;99.90;;;;;;6121025;23;20013;-81
2023/01/21 12:20:51;;;;;;;16.58;14.90;;;5.60;99.90;;;;;;6146433;23;20343;-83
2023/01/21 12:23:54;;;;;;;18.92;16.40;;;5.60;99.90;;;;;;6146952;23;20017;-82
2023/01/21 12:26:26;;;;;;;21.50;17.77;;;5.50;99.90;;;;;;6123320;23;20022;-82
2023/01/21 12:29:21;;;;;;;20.38;16.60;;;5.40;99.90;;;;;;6123741;23;20021;-83
2023/01/21 12:32:00;;;;;;;18.30;15.52;;;5.50;99.90;;;;;;6145680;23;20093;-82
2023/01/21 12:34:25;;;;;;;15.93;13.68;;;5.40;99.90;;;;;;6124373;23;20013;-83
2023/01/21 12:37:02;;;;;;;11.32;10.13;;;5.50;99.90;;;;;;6125101;23;20822;-82
2023/01/21 12:39:30;;;;;;;10.00;9.00;;;5.10;99.90;;;;;;6151510;23;20025;-82
2023/01/21 12:42:15;;;;;;;8.80;7.88;;;5.20;99.90;;;;;;6149354;23;20414;-82
2023/01/21 12:44:51;;;;;;;8.90;7.78;;;4.90;99.90;;;;;;6149384;23;20025;-81
2023/01/21 12:47:24;;;;;;;9.20;8.13;;;5.00;99.90;;;;;;6150389;23;20021;-82
2023/01/21 12:50:17;;;;;;;10.48;9.32;;;4.80;99.90;;;;;;6126274;23;20068;-82
2023/01/21 12:52:57;;;;;;;11.52;8.30;;;4.70;99.90;;;;;;6126333;23;20005;-83
2023/01/21 12:55:25;;;;;;;9.27;7.47;;;4.50;99.90;;;;;;6150859;23;20014;-82
2023/01/21 12:58:01;;;;;;;11.57;7.88;;;4.50;99.90;;;;;;6151513;23;20052;-82
2023/01/21 13:00:32;;;;;;;9.70;7.32;;;4.20;99.90;;;;;;6127281;23;20017;-82